sensor_id;sensor_type;location;lat;lon;timestamp;P1;durP1;ratioP1;P2;durP2;ratioP2
41705;SDS011;27385;51.096;17.190;2022-10-17T00:01:02;34.20;;;16.70;;
41705;SDS011;27385;51.096;17.190;2022-10-17T00:03:35;39.50;;;21.20;;
41705;SDS011;27385;51.096;17.190;2022-10-17T00:06:08;34.00;;;17.40;;
41705;SDS011;27385;51.096;17.190;2022-10-17T00:08:42;35.80;;;18.90;;
41705;SDS011;27385;51.096;17.190;2022-10-17T00:11:15;37.60;;;18.80;;
41705;SDS011;27385;51.096;17.190;2022-10-17T00:13:48;35.40;;;18.00;;
41705;SDS011;27385;51.096;17.190;2022-10-17T00:16:24;35.90;;;18.80;;
41705;SDS011;27385;51.096;17.190;2022-10-17T00:18:57;40.90;;;19.60;;
41705;SDS011;27385;51.096;17.190;2022-10-17T00:21:29;39.40;;;20.00;;
41705;SDS011;27385;51.096;17.190;2022-10-17T00:24:02;40.00;;;18.10;;
41705;SDS011;27385;51.096;17.190;2022-10-17T00:26:34;37.90;;;19.00;;
41705;SDS011;27385;51.096;17.190;2022-10-17T00:29:05;36.30;;;20.10;;
41705;SDS011;27385;51.096;17.190;2022-10-17T00:31:37;36.40;;;20.60;;
41705;SDS011;27385;51.096;17.190;2022-10-17T00:34:08;36.10;;;18.90;;
41705;SDS011;27385;51.096;17.190;2022-10-17T00:36:39;37.10;;;19.60;;
41705;SDS011;27385;51.096;17.190;2022-10-17T00:39:11;37.50;;;19.80;;
41705;SDS011;27385;51.096;17.190;2022-10-17T00:41:44;39.70;;;21.30;;
41705;SDS011;27385;51.096;17.190;2022-10-17T00:47:18;38.80;;;20.90;;
41705;SDS011;27385;51.096;17.190;2022-10-17T00:49:50;40.00;;;20.20;;
41705;SDS011;27385;51.096;17.190;2022-10-17T00:52:23;41.20;;;20.00;;
41705;SDS011;27385;51.096;17.190;2022-10-17T00:54:57;34.20;;;17.90;;
41705;SDS011;27385;51.096;17.190;2022-10-17T00:57:31;42.00;;;19.90;;
41705;SDS011;27385;51.096;17.190;2022-10-17T01:00:05;36.70;;;20.50;;
41705;SDS011;27385;51.096;17.190;2022-10-17T01:02:40;33.80;;;18.60;;
41705;SDS011;27385;51.096;17.190;2022-10-17T01:05:12;33.70;;;18.70;;
41705;SDS011;27385;51.096;17.190;2022-10-17T01:07:47;37.90;;;20.20;;
41705;SDS011;27385;51.096;17.190;2022-10-17T01:10:21;34.60;;;17.50;;
41705;SDS011;27385;51.096;17.190;2022-10-17T01:12:59;36.10;;;18.70;;
41705;SDS011;27385;51.096;17.190;2022-10-17T01:15:42;33.20;;;18.60;;
41705;SDS011;27385;51.096;17.190;2022-10-17T01:18:30;42.70;;;20.30;;
41705;SDS011;27385;51.096;17.190;2022-10-17T01:21:09;42.20;;;20.20;;
41705;SDS011;27385;51.096;17.190;2022-10-17T01:24:05;39.10;;;19.70;;
41705;SDS011;27385;51.096;17.190;2022-10-17T01:27:02;41.60;;;21.70;;
41705;SDS011;27385;51.096;17.190;2022-10-17T01:29:54;38.00;;;19.80;;
41705;SDS011;27385;51.096;17.190;2022-10-17T01:32:39;41.20;;;21.90;;
41705;SDS011;27385;51.096;17.190;2022-10-17T01:35:18;39.10;;;19.70;;
41705;SDS011;27385;51.096;17.190;2022-10-17T01:37:57;41.00;;;20.90;;
41705;SDS011;27385;51.096;17.190;2022-10-17T01:40:34;38.10;;;20.70;;
41705;SDS011;27385;51.096;17.190;2022-10-17T01:43:12;39.10;;;21.00;;
41705;SDS011;27385;51.096;17.190;2022-10-17T01:45:48;37.60;;;21.10;;
41705;SDS011;27385;51.096;17.190;2022-10-17T01:48:23;35.90;;;20.70;;
41705;SDS011;27385;51.096;17.190;2022-10-17T01:51:00;38.50;;;21.20;;
41705;SDS011;27385;51.096;17.190;2022-10-17T01:53:37;48.10;;;21.70;;
41705;SDS011;27385;51.096;17.190;2022-10-17T01:56:13;37.30;;;20.60;;
41705;SDS011;27385;51.096;17.190;2022-10-17T01:58:46;37.80;;;20.40;;
41705;SDS011;27385;51.096;17.190;2022-10-17T02:01:21;37.80;;;19.90;;
41705;SDS011;27385;51.096;17.190;2022-10-17T02:03:55;39.40;;;20.10;;
41705;SDS011;27385;51.096;17.190;2022-10-17T02:06:27;38.80;;;20.60;;
41705;SDS011;27385;51.096;17.190;2022-10-17T02:09:13;36.10;;;18.50;;
41705;SDS011;27385;51.096;17.190;2022-10-17T02:11:49;42.60;;;19.60;;
41705;SDS011;27385;51.096;17.190;2022-10-17T02:14:34;40.50;;;19.50;;
41705;SDS011;27385;51.096;17.190;2022-10-17T02:17:15;40.40;;;19.30;;
41705;SDS011;27385;51.096;17.190;2022-10-17T02:19:58;38.40;;;21.10;;
41705;SDS011;27385;51.096;17.190;2022-10-17T02:22:38;42.70;;;19.90;;
41705;SDS011;27385;51.096;17.190;2022-10-17T02:25:17;40.20;;;21.00;;
41705;SDS011;27385;51.096;17.190;2022-10-17T02:27:57;38.60;;;19.90;;
41705;SDS011;27385;51.096;17.190;2022-10-17T02:30:35;45.90;;;21.80;;
41705;SDS011;27385;51.096;17.190;2022-10-17T02:33:10;39.20;;;20.70;;
41705;SDS011;27385;51.096;17.190;2022-10-17T02:35:45;44.20;;;21.30;;
41705;SDS011;27385;51.096;17.190;2022-10-17T02:38:20;37.70;;;21.90;;
41705;SDS011;27385;51.096;17.190;2022-10-17T02:40:53;39.70;;;22.90;;
41705;SDS011;27385;51.096;17.190;2022-10-17T02:43:25;40.30;;;24.10;;
41705;SDS011;27385;51.096;17.190;2022-10-17T02:45:57;46.00;;;23.80;;
41705;SDS011;27385;51.096;17.190;2022-10-17T02:48:30;40.60;;;21.70;;
41705;SDS011;27385;51.096;17.190;2022-10-17T02:51:06;40.10;;;21.90;;
41705;SDS011;27385;51.096;17.190;2022-10-17T02:53:45;40.00;;;22.30;;
41705;SDS011;27385;51.096;17.190;2022-10-17T02:56:21;37.10;;;20.70;;
41705;SDS011;27385;51.096;17.190;2022-10-17T02:58:58;40.00;;;22.30;;
41705;SDS011;27385;51.096;17.190;2022-10-17T03:01:31;37.70;;;19.90;;
41705;SDS011;27385;51.096;17.190;2022-10-17T03:04:07;37.00;;;20.50;;
41705;SDS011;27385;51.096;17.190;2022-10-17T03:06:41;39.30;;;21.40;;
41705;SDS011;27385;51.096;17.190;2022-10-17T03:09:13;47.00;;;25.00;;
41705;SDS011;27385;51.096;17.190;2022-10-17T03:11:44;43.00;;;22.70;;
41705;SDS011;27385;51.096;17.190;2022-10-17T03:14:16;39.30;;;23.50;;
41705;SDS011;27385;51.096;17.190;2022-10-17T03:16:47;37.20;;;21.00;;
41705;SDS011;27385;51.096;17.190;2022-10-17T03:19:19;41.10;;;21.40;;
41705;SDS011;27385;51.096;17.190;2022-10-17T03:21:50;38.10;;;22.10;;
41705;SDS011;27385;51.096;17.190;2022-10-17T03:24:23;38.90;;;21.40;;
41705;SDS011;27385;51.096;17.190;2022-10-17T03:26:55;37.60;;;20.60;;
41705;SDS011;27385;51.096;17.190;2022-10-17T03:29:27;35.20;;;19.50;;
41705;SDS011;27385;51.096;17.190;2022-10-17T03:31:58;32.80;;;18.40;;
41705;SDS011;27385;51.096;17.190;2022-10-17T03:34:29;35.70;;;19.80;;
41705;SDS011;27385;51.096;17.190;2022-10-17T03:37:01;36.50;;;19.20;;
41705;SDS011;27385;51.096;17.190;2022-10-17T03:39:32;36.20;;;19.00;;
41705;SDS011;27385;51.096;17.190;2022-10-17T03:42:04;37.40;;;20.20;;
41705;SDS011;27385;51.096;17.190;2022-10-17T03:44:36;41.80;;;20.60;;
41705;SDS011;27385;51.096;17.190;2022-10-17T03:47:07;41.30;;;21.40;;
41705;SDS011;27385;51.096;17.190;2022-10-17T03:49:39;46.00;;;23.10;;
41705;SDS011;27385;51.096;17.190;2022-10-17T03:52:11;40.60;;;22.20;;
41705;SDS011;27385;51.096;17.190;2022-10-17T03:54:42;42.20;;;22.00;;
41705;SDS011;27385;51.096;17.190;2022-10-17T03:57:14;40.70;;;21.10;;
41705;SDS011;27385;51.096;17.190;2022-10-17T03:59:45;42.90;;;22.20;;
41705;SDS011;27385;51.096;17.190;2022-10-17T04:02:18;38.80;;;19.60;;
41705;SDS011;27385;51.096;17.190;2022-10-17T04:04:49;44.00;;;22.20;;
41705;SDS011;27385;51.096;17.190;2022-10-17T04:07:21;41.90;;;20.90;;
41705;SDS011;27385;51.096;17.190;2022-10-17T04:09:52;38.30;;;20.70;;
41705;SDS011;27385;51.096;17.190;2022-10-17T04:12:23;38.10;;;20.10;;
41705;SDS011;27385;51.096;17.190;2022-10-17T04:14:54;34.40;;;18.00;;
41705;SDS011;27385;51.096;17.190;2022-10-17T04:17:26;38.30;;;18.80;;
41705;SDS011;27385;51.096;17.190;2022-10-17T04:19:59;36.00;;;18.60;;
41705;SDS011;27385;51.096;17.190;2022-10-17T04:22:31;34.80;;;18.40;;
41705;SDS011;27385;51.096;17.190;2022-10-17T04:25:03;36.90;;;19.40;;
41705;SDS011;27385;51.096;17.190;2022-10-17T04:27:36;36.10;;;19.00;;
41705;SDS011;27385;51.096;17.190;2022-10-17T04:30:08;37.30;;;19.30;;
41705;SDS011;27385;51.096;17.190;2022-10-17T04:32:40;43.20;;;21.90;;
41705;SDS011;27385;51.096;17.190;2022-10-17T04:35:11;42.50;;;20.50;;
41705;SDS011;27385;51.096;17.190;2022-10-17T04:37:43;40.10;;;22.20;;
41705;SDS011;27385;51.096;17.190;2022-10-17T04:40:15;40.40;;;21.60;;
41705;SDS011;27385;51.096;17.190;2022-10-17T04:42:47;43.80;;;23.70;;
41705;SDS011;27385;51.096;17.190;2022-10-17T04:45:19;43.50;;;23.70;;
41705;SDS011;27385;51.096;17.190;2022-10-17T04:47:50;50.40;;;25.40;;
41705;SDS011;27385;51.096;17.190;2022-10-17T04:50:23;46.30;;;24.20;;
41705;SDS011;27385;51.096;17.190;2022-10-17T04:52:54;45.40;;;23.80;;
41705;SDS011;27385;51.096;17.190;2022-10-17T04:55:27;45.00;;;24.50;;
41705;SDS011;27385;51.096;17.190;2022-10-17T04:57:59;47.90;;;25.40;;
41705;SDS011;27385;51.096;17.190;2022-10-17T05:00:34;44.10;;;24.50;;
41705;SDS011;27385;51.096;17.190;2022-10-17T05:03:06;46.10;;;24.50;;
41705;SDS011;27385;51.096;17.190;2022-10-17T05:05:37;44.10;;;23.50;;
41705;SDS011;27385;51.096;17.190;2022-10-17T05:08:13;45.40;;;23.80;;
41705;SDS011;27385;51.096;17.190;2022-10-17T05:10:47;45.00;;;25.10;;
41705;SDS011;27385;51.096;17.190;2022-10-17T05:13:19;46.40;;;24.00;;
41705;SDS011;27385;51.096;17.190;2022-10-17T05:15:50;50.10;;;25.20;;
41705;SDS011;27385;51.096;17.190;2022-10-17T05:18:22;42.10;;;23.70;;
41705;SDS011;27385;51.096;17.190;2022-10-17T05:20:53;50.00;;;25.10;;
41705;SDS011;27385;51.096;17.190;2022-10-17T05:23:24;45.10;;;23.40;;
41705;SDS011;27385;51.096;17.190;2022-10-17T05:25:58;50.50;;;25.20;;
41705;SDS011;27385;51.096;17.190;2022-10-17T05:28:29;46.00;;;24.20;;
41705;SDS011;27385;51.096;17.190;2022-10-17T05:31:02;47.70;;;25.30;;
41705;SDS011;27385;51.096;17.190;2022-10-17T05:33:34;53.60;;;27.50;;
41705;SDS011;27385;51.096;17.190;2022-10-17T05:36:07;54.10;;;27.30;;
41705;SDS011;27385;51.096;17.190;2022-10-17T05:38:39;58.10;;;29.80;;
41705;SDS011;27385;51.096;17.190;2022-10-17T05:41:10;54.50;;;29.90;;
41705;SDS011;27385;51.096;17.190;2022-10-17T05:43:41;51.40;;;27.20;;
41705;SDS011;27385;51.096;17.190;2022-10-17T05:46:15;48.70;;;25.90;;
41705;SDS011;27385;51.096;17.190;2022-10-17T05:48:47;44.30;;;24.50;;
41705;SDS011;27385;51.096;17.190;2022-10-17T05:51:18;44.90;;;22.70;;
41705;SDS011;27385;51.096;17.190;2022-10-17T05:53:49;41.90;;;21.40;;
41705;SDS011;27385;51.096;17.190;2022-10-17T05:56:22;48.70;;;26.60;;
41705;SDS011;27385;51.096;17.190;2022-10-17T05:58:53;47.30;;;25.20;;
41705;SDS011;27385;51.096;17.190;2022-10-17T06:01:26;46.80;;;25.00;;
41705;SDS011;27385;51.096;17.190;2022-10-17T06:03:57;46.40;;;24.00;;
41705;SDS011;27385;51.096;17.190;2022-10-17T06:06:28;52.80;;;26.30;;
41705;SDS011;27385;51.096;17.190;2022-10-17T06:08:59;43.20;;;23.70;;
41705;SDS011;27385;51.096;17.190;2022-10-17T06:11:31;44.40;;;22.90;;
41705;SDS011;27385;51.096;17.190;2022-10-17T06:14:03;61.10;;;28.40;;
41705;SDS011;27385;51.096;17.190;2022-10-17T06:16:35;59.50;;;30.00;;
41705;SDS011;27385;51.096;17.190;2022-10-17T06:19:07;50.90;;;27.70;;
41705;SDS011;27385;51.096;17.190;2022-10-17T06:21:39;52.80;;;26.50;;
41705;SDS011;27385;51.096;17.190;2022-10-17T06:24:10;45.70;;;24.90;;
41705;SDS011;27385;51.096;17.190;2022-10-17T06:26:41;48.60;;;25.20;;
41705;SDS011;27385;51.096;17.190;2022-10-17T06:29:14;49.50;;;26.00;;
41705;SDS011;27385;51.096;17.190;2022-10-17T06:31:47;51.70;;;28.00;;
41705;SDS011;27385;51.096;17.190;2022-10-17T06:34:18;54.90;;;28.70;;
41705;SDS011;27385;51.096;17.190;2022-10-17T06:36:49;47.00;;;26.60;;
41705;SDS011;27385;51.096;17.190;2022-10-17T06:39:21;55.90;;;26.30;;
41705;SDS011;27385;51.096;17.190;2022-10-17T06:41:54;52.40;;;28.60;;
41705;SDS011;27385;51.096;17.190;2022-10-17T06:44:25;51.20;;;27.50;;
41705;SDS011;27385;51.096;17.190;2022-10-17T06:46:59;52.00;;;26.30;;
41705;SDS011;27385;51.096;17.190;2022-10-17T06:49:32;55.90;;;30.30;;
41705;SDS011;27385;51.096;17.190;2022-10-17T06:52:03;54.50;;;31.30;;
41705;SDS011;27385;51.096;17.190;2022-10-17T06:54:35;59.20;;;32.00;;
41705;SDS011;27385;51.096;17.190;2022-10-17T06:57:06;62.90;;;34.10;;
41705;SDS011;27385;51.096;17.190;2022-10-17T06:59:37;65.30;;;31.40;;
41705;SDS011;27385;51.096;17.190;2022-10-17T07:02:10;55.00;;;31.00;;
41705;SDS011;27385;51.096;17.190;2022-10-17T07:04:41;57.30;;;30.80;;
41705;SDS011;27385;51.096;17.190;2022-10-17T07:07:13;52.70;;;28.60;;
41705;SDS011;27385;51.096;17.190;2022-10-17T07:09:45;55.50;;;30.40;;
41705;SDS011;27385;51.096;17.190;2022-10-17T07:12:16;55.60;;;29.90;;
41705;SDS011;27385;51.096;17.190;2022-10-17T07:14:48;55.50;;;32.20;;
41705;SDS011;27385;51.096;17.190;2022-10-17T07:17:19;52.40;;;29.20;;
41705;SDS011;27385;51.096;17.190;2022-10-17T07:19:50;59.80;;;32.30;;
41705;SDS011;27385;51.096;17.190;2022-10-17T07:22:22;60.50;;;30.30;;
41705;SDS011;27385;51.096;17.190;2022-10-17T07:24:53;52.10;;;30.90;;
41705;SDS011;27385;51.096;17.190;2022-10-17T07:27:25;56.20;;;30.90;;
41705;SDS011;27385;51.096;17.190;2022-10-17T07:29:56;48.40;;;27.00;;
41705;SDS011;27385;51.096;17.190;2022-10-17T07:32:28;53.50;;;29.10;;
41705;SDS011;27385;51.096;17.190;2022-10-17T07:34:59;56.60;;;29.60;;
41705;SDS011;27385;51.096;17.190;2022-10-17T07:37:31;51.10;;;28.00;;
41705;SDS011;27385;51.096;17.190;2022-10-17T07:40:04;49.00;;;26.60;;
41705;SDS011;27385;51.096;17.190;2022-10-17T07:42:36;50.90;;;26.60;;
41705;SDS011;27385;51.096;17.190;2022-10-17T07:45:08;49.10;;;27.10;;
41705;SDS011;27385;51.096;17.190;2022-10-17T07:47:40;55.10;;;29.80;;
41705;SDS011;27385;51.096;17.190;2022-10-17T07:50:11;50.60;;;27.80;;
41705;SDS011;27385;51.096;17.190;2022-10-17T07:52:43;53.60;;;28.90;;
41705;SDS011;27385;51.096;17.190;2022-10-17T07:55:14;53.40;;;28.00;;
41705;SDS011;27385;51.096;17.190;2022-10-17T07:57:46;50.10;;;27.90;;
41705;SDS011;27385;51.096;17.190;2022-10-17T08:00:19;48.60;;;27.30;;
41705;SDS011;27385;51.096;17.190;2022-10-17T08:02:50;43.10;;;23.70;;
41705;SDS011;27385;51.096;17.190;2022-10-17T08:05:22;40.40;;;23.20;;
41705;SDS011;27385;51.096;17.190;2022-10-17T08:07:53;47.30;;;25.50;;
41705;SDS011;27385;51.096;17.190;2022-10-17T08:10:25;45.90;;;23.30;;
41705;SDS011;27385;51.096;17.190;2022-10-17T08:12:56;42.30;;;22.90;;
41705;SDS011;27385;51.096;17.190;2022-10-17T08:15:29;43.60;;;22.90;;
41705;SDS011;27385;51.096;17.190;2022-10-17T08:18:00;40.50;;;22.50;;
41705;SDS011;27385;51.096;17.190;2022-10-17T08:20:32;42.20;;;22.90;;
41705;SDS011;27385;51.096;17.190;2022-10-17T08:23:03;37.30;;;21.00;;
41705;SDS011;27385;51.096;17.190;2022-10-17T08:25:34;41.90;;;21.30;;
41705;SDS011;27385;51.096;17.190;2022-10-17T08:28:08;37.40;;;21.80;;
41705;SDS011;27385;51.096;17.190;2022-10-17T08:30:39;36.10;;;19.70;;
41705;SDS011;27385;51.096;17.190;2022-10-17T08:33:10;38.90;;;22.40;;
41705;SDS011;27385;51.096;17.190;2022-10-17T08:35:42;37.60;;;20.80;;
41705;SDS011;27385;51.096;17.190;2022-10-17T08:38:13;45.00;;;21.90;;
41705;SDS011;27385;51.096;17.190;2022-10-17T08:40:47;40.60;;;21.80;;
41705;SDS011;27385;51.096;17.190;2022-10-17T08:43:25;37.90;;;19.60;;
41705;SDS011;27385;51.096;17.190;2022-10-17T08:46:02;39.50;;;21.40;;
41705;SDS011;27385;51.096;17.190;2022-10-17T08:48:37;35.80;;;20.50;;
41705;SDS011;27385;51.096;17.190;2022-10-17T08:51:11;33.80;;;18.30;;
41705;SDS011;27385;51.096;17.190;2022-10-17T08:53:46;37.00;;;20.50;;
41705;SDS011;27385;51.096;17.190;2022-10-17T08:56:22;41.20;;;20.90;;
41705;SDS011;27385;51.096;17.190;2022-10-17T08:58:56;34.90;;;18.30;;
41705;SDS011;27385;51.096;17.190;2022-10-17T09:01:33;33.80;;;18.60;;
41705;SDS011;27385;51.096;17.190;2022-10-17T09:04:16;37.10;;;18.50;;
41705;SDS011;27385;51.096;17.190;2022-10-17T09:07:03;39.90;;;20.20;;
41705;SDS011;27385;51.096;17.190;2022-10-17T09:09:43;36.40;;;18.60;;
41705;SDS011;27385;51.096;17.190;2022-10-17T09:12:24;29.20;;;14.90;;
41705;SDS011;27385;51.096;17.190;2022-10-17T09:18:08;31.10;;;16.30;;
41705;SDS011;27385;51.096;17.190;2022-10-17T09:20:45;30.30;;;15.90;;
41705;SDS011;27385;51.096;17.190;2022-10-17T09:23:20;32.60;;;16.10;;
41705;SDS011;27385;51.096;17.190;2022-10-17T09:25:55;30.50;;;16.00;;
41705;SDS011;27385;51.096;17.190;2022-10-17T09:28:29;31.90;;;16.70;;
41705;SDS011;27385;51.096;17.190;2022-10-17T09:31:03;32.60;;;16.10;;
41705;SDS011;27385;51.096;17.190;2022-10-17T09:33:40;29.80;;;15.70;;
41705;SDS011;27385;51.096;17.190;2022-10-17T09:36:14;31.30;;;15.60;;
41705;SDS011;27385;51.096;17.190;2022-10-17T09:38:50;28.80;;;14.00;;
41705;SDS011;27385;51.096;17.190;2022-10-17T09:41:25;27.50;;;13.70;;
41705;SDS011;27385;51.096;17.190;2022-10-17T09:44:00;28.60;;;14.10;;
41705;SDS011;27385;51.096;17.190;2022-10-17T09:46:42;27.30;;;14.00;;
41705;SDS011;27385;51.096;17.190;2022-10-17T09:49:21;26.30;;;12.60;;
41705;SDS011;27385;51.096;17.190;2022-10-17T09:52:00;28.80;;;13.60;;
41705;SDS011;27385;51.096;17.190;2022-10-17T09:54:41;28.50;;;13.10;;
41705;SDS011;27385;51.096;17.190;2022-10-17T09:57:14;24.20;;;11.90;;
41705;SDS011;27385;51.096;17.190;2022-10-17T09:59:54;25.00;;;12.70;;
41705;SDS011;27385;51.096;17.190;2022-10-17T10:02:27;23.40;;;12.30;;
41705;SDS011;27385;51.096;17.190;2022-10-17T10:05:03;22.70;;;11.30;;
41705;SDS011;27385;51.096;17.190;2022-10-17T10:07:45;26.20;;;11.70;;
41705;SDS011;27385;51.096;17.190;2022-10-17T10:10:32;28.90;;;11.30;;
41705;SDS011;27385;51.096;17.190;2022-10-17T10:13:05;25.60;;;12.10;;
41705;SDS011;27385;51.096;17.190;2022-10-17T10:15:48;26.60;;;12.80;;
41705;SDS011;27385;51.096;17.190;2022-10-17T10:18:27;24.00;;;11.10;;
41705;SDS011;27385;51.096;17.190;2022-10-17T10:21:04;25.60;;;12.00;;
41705;SDS011;27385;51.096;17.190;2022-10-17T10:23:43;19.90;;;9.90;;
41705;SDS011;27385;51.096;17.190;2022-10-17T10:26:31;23.10;;;9.70;;
41705;SDS011;27385;51.096;17.190;2022-10-17T10:29:17;19.90;;;9.90;;
41705;SDS011;27385;51.096;17.190;2022-10-17T10:31:52;22.80;;;10.90;;
41705;SDS011;27385;51.096;17.190;2022-10-17T10:34:25;21.40;;;10.40;;
41705;SDS011;27385;51.096;17.190;2022-10-17T10:36:59;22.50;;;10.70;;
41705;SDS011;27385;51.096;17.190;2022-10-17T10:39:42;21.90;;;10.40;;
41705;SDS011;27385;51.096;17.190;2022-10-17T10:42:23;21.80;;;10.70;;
41705;SDS011;27385;51.096;17.190;2022-10-17T10:44:58;22.60;;;10.80;;
41705;SDS011;27385;51.096;17.190;2022-10-17T10:47:33;22.20;;;9.60;;
41705;SDS011;27385;51.096;17.190;2022-10-17T10:50:15;21.80;;;9.60;;
41705;SDS011;27385;51.096;17.190;2022-10-17T10:52:54;19.90;;;9.00;;
41705;SDS011;27385;51.096;17.190;2022-10-17T10:55:35;20.30;;;9.40;;
41705;SDS011;27385;51.096;17.190;2022-10-17T10:58:17;20.10;;;9.70;;
41705;SDS011;27385;51.096;17.190;2022-10-17T11:00:54;24.80;;;10.80;;
41705;SDS011;27385;51.096;17.190;2022-10-17T11:03:31;23.40;;;9.50;;
41705;SDS011;27385;51.096;17.190;2022-10-17T11:06:11;19.60;;;9.80;;
41705;SDS011;27385;51.096;17.190;2022-10-17T11:08:48;20.10;;;10.20;;
41705;SDS011;27385;51.096;17.190;2022-10-17T11:11:27;21.40;;;11.10;;
41705;SDS011;27385;51.096;17.190;2022-10-17T11:14:01;25.60;;;10.90;;
41705;SDS011;27385;51.096;17.190;2022-10-17T11:16:38;21.70;;;11.10;;
41705;SDS011;27385;51.096;17.190;2022-10-17T11:19:15;25.60;;;10.00;;
41705;SDS011;27385;51.096;17.190;2022-10-17T11:21:56;23.20;;;10.50;;
41705;SDS011;27385;51.096;17.190;2022-10-17T11:24:37;20.80;;;10.10;;
41705;SDS011;27385;51.096;17.190;2022-10-17T11:27:14;22.30;;;11.10;;
41705;SDS011;27385;51.096;17.190;2022-10-17T11:29:46;21.90;;;10.90;;
41705;SDS011;27385;51.096;17.190;2022-10-17T11:32:19;24.90;;;10.20;;
41705;SDS011;27385;51.096;17.190;2022-10-17T11:34:54;20.60;;;10.10;;
41705;SDS011;27385;51.096;17.190;2022-10-17T11:37:30;27.40;;;10.60;;
41705;SDS011;27385;51.096;17.190;2022-10-17T11:40:07;22.80;;;11.00;;
41705;SDS011;27385;51.096;17.190;2022-10-17T11:42:50;23.90;;;11.40;;
41705;SDS011;27385;51.096;17.190;2022-10-17T11:45:26;20.80;;;10.80;;
41705;SDS011;27385;51.096;17.190;2022-10-17T11:48:03;23.20;;;10.30;;
41705;SDS011;27385;51.096;17.190;2022-10-17T11:50:41;23.90;;;12.50;;
41705;SDS011;27385;51.096;17.190;2022-10-17T11:53:16;25.70;;;12.90;;
41705;SDS011;27385;51.096;17.190;2022-10-17T11:55:51;20.90;;;11.30;;
41705;SDS011;27385;51.096;17.190;2022-10-17T11:58:29;23.30;;;10.60;;
41705;SDS011;27385;51.096;17.190;2022-10-17T12:01:08;20.30;;;10.50;;
41705;SDS011;27385;51.096;17.190;2022-10-17T12:03:59;22.20;;;11.10;;
41705;SDS011;27385;51.096;17.190;2022-10-17T12:06:51;22.50;;;10.60;;
41705;SDS011;27385;51.096;17.190;2022-10-17T12:09:37;20.90;;;11.00;;
41705;SDS011;27385;51.096;17.190;2022-10-17T12:12:24;21.40;;;11.20;;
41705;SDS011;27385;51.096;17.190;2022-10-17T12:15:25;21.90;;;12.00;;
41705;SDS011;27385;51.096;17.190;2022-10-17T12:17:59;24.10;;;11.40;;
41705;SDS011;27385;51.096;17.190;2022-10-17T12:20:32;22.70;;;11.20;;
41705;SDS011;27385;51.096;17.190;2022-10-17T12:23:20;21.80;;;11.30;;
41705;SDS011;27385;51.096;17.190;2022-10-17T12:25:57;22.60;;;10.40;;
41705;SDS011;27385;51.096;17.190;2022-10-17T12:28:31;21.00;;;10.40;;
41705;SDS011;27385;51.096;17.190;2022-10-17T12:31:10;23.40;;;11.00;;
41705;SDS011;27385;51.096;17.190;2022-10-17T12:33:54;19.90;;;9.80;;
41705;SDS011;27385;51.096;17.190;2022-10-17T12:51:19;22.20;;;11.40;;
41705;SDS011;27385;51.096;17.190;2022-10-17T12:53:55;23.30;;;12.40;;
41705;SDS011;27385;51.096;17.190;2022-10-17T12:56:35;23.60;;;12.10;;
41705;SDS011;27385;51.096;17.190;2022-10-17T12:59:12;21.10;;;10.90;;
41705;SDS011;27385;51.096;17.190;2022-10-17T13:01:47;28.40;;;13.60;;
41705;SDS011;27385;51.096;17.190;2022-10-17T13:04:21;22.00;;;10.70;;
41705;SDS011;27385;51.096;17.190;2022-10-17T13:06:54;22.00;;;10.30;;
41705;SDS011;27385;51.096;17.190;2022-10-17T13:09:29;22.20;;;12.00;;
41705;SDS011;27385;51.096;17.190;2022-10-17T13:12:02;23.20;;;10.90;;
41705;SDS011;27385;51.096;17.190;2022-10-17T13:14:39;22.10;;;11.60;;
41705;SDS011;27385;51.096;17.190;2022-10-17T13:17:20;23.50;;;10.80;;
41705;SDS011;27385;51.096;17.190;2022-10-17T13:19:54;24.40;;;11.50;;
41705;SDS011;27385;51.096;17.190;2022-10-17T13:22:27;23.00;;;12.00;;
41705;SDS011;27385;51.096;17.190;2022-10-17T13:25:07;25.20;;;12.50;;
41705;SDS011;27385;51.096;17.190;2022-10-17T13:27:42;26.90;;;12.00;;
41705;SDS011;27385;51.096;17.190;2022-10-17T13:30:22;27.70;;;11.80;;
41705;SDS011;27385;51.096;17.190;2022-10-17T13:32:55;22.20;;;11.30;;
41705;SDS011;27385;51.096;17.190;2022-10-17T13:35:27;22.90;;;11.50;;
41705;SDS011;27385;51.096;17.190;2022-10-17T13:38:03;24.50;;;12.20;;
41705;SDS011;27385;51.096;17.190;2022-10-17T13:40:39;24.80;;;11.70;;
41705;SDS011;27385;51.096;17.190;2022-10-17T13:43:14;22.40;;;11.40;;
41705;SDS011;27385;51.096;17.190;2022-10-17T13:45:49;22.80;;;10.90;;
41705;SDS011;27385;51.096;17.190;2022-10-17T13:48:22;28.00;;;12.30;;
41705;SDS011;27385;51.096;17.190;2022-10-17T13:50:56;25.00;;;13.40;;
41705;SDS011;27385;51.096;17.190;2022-10-17T13:53:30;26.60;;;11.30;;
41705;SDS011;27385;51.096;17.190;2022-10-17T13:56:04;23.80;;;11.70;;
41705;SDS011;27385;51.096;17.190;2022-10-17T13:58:48;23.10;;;10.90;;
41705;SDS011;27385;51.096;17.190;2022-10-17T14:01:23;24.00;;;11.40;;
41705;SDS011;27385;51.096;17.190;2022-10-17T14:03:57;24.50;;;12.00;;
41705;SDS011;27385;51.096;17.190;2022-10-17T14:06:29;25.10;;;11.50;;
41705;SDS011;27385;51.096;17.190;2022-10-17T14:09:02;21.50;;;10.90;;
41705;SDS011;27385;51.096;17.190;2022-10-17T14:11:35;22.30;;;10.80;;
41705;SDS011;27385;51.096;17.190;2022-10-17T14:14:14;22.40;;;12.30;;
41705;SDS011;27385;51.096;17.190;2022-10-17T14:16:47;23.60;;;13.00;;
41705;SDS011;27385;51.096;17.190;2022-10-17T14:19:22;24.70;;;12.10;;
41705;SDS011;27385;51.096;17.190;2022-10-17T14:22:13;21.80;;;10.80;;
41705;SDS011;27385;51.096;17.190;2022-10-17T14:24:47;23.30;;;10.90;;
41705;SDS011;27385;51.096;17.190;2022-10-17T14:27:27;21.90;;;10.70;;
41705;SDS011;27385;51.096;17.190;2022-10-17T14:30:03;22.80;;;11.60;;
41705;SDS011;27385;51.096;17.190;2022-10-17T14:32:59;23.30;;;10.90;;
41705;SDS011;27385;51.096;17.190;2022-10-17T14:35:32;21.50;;;10.50;;
41705;SDS011;27385;51.096;17.190;2022-10-17T14:38:05;23.40;;;10.70;;
41705;SDS011;27385;51.096;17.190;2022-10-17T14:40:47;23.80;;;12.10;;
41705;SDS011;27385;51.096;17.190;2022-10-17T14:43:21;24.00;;;12.30;;
41705;SDS011;27385;51.096;17.190;2022-10-17T14:45:57;30.60;;;14.60;;
41705;SDS011;27385;51.096;17.190;2022-10-17T14:48:34;27.20;;;14.40;;
41705;SDS011;27385;51.096;17.190;2022-10-17T14:51:10;31.30;;;15.40;;
41705;SDS011;27385;51.096;17.190;2022-10-17T14:53:43;26.40;;;14.20;;
41705;SDS011;27385;51.096;17.190;2022-10-17T14:56:35;24.10;;;12.50;;
41705;SDS011;27385;51.096;17.190;2022-10-17T14:59:09;27.90;;;10.80;;
41705;SDS011;27385;51.096;17.190;2022-10-17T15:01:44;25.70;;;12.00;;
41705;SDS011;27385;51.096;17.190;2022-10-17T15:04:16;21.20;;;10.60;;
41705;SDS011;27385;51.096;17.190;2022-10-17T15:06:52;24.70;;;11.80;;
41705;SDS011;27385;51.096;17.190;2022-10-17T15:09:23;19.80;;;10.00;;
41705;SDS011;27385;51.096;17.190;2022-10-17T15:11:56;24.60;;;12.40;;
41705;SDS011;27385;51.096;17.190;2022-10-17T15:14:30;24.00;;;11.90;;